WEATHER DATA

TODAY
Time Temp. Dewp. Hum. Wind dir Wind speed Wind gust Bar. 1h Prec. 24h Prec.
00:16 19 15.5 80 156 0.3 0.8 1016.7 0.0000 0.0000
00:26 18.8 15.5 81 159 0.3 0.8 1016.7 0.0000 0.0000
00:36 18.7 15.6 82 150 0.3 0.8 1016.7 0.0000 0.0000
00:47 18.5 15.4 82 135 0.3 0.8 1016.7 0.0000 0.0000
00:57 18.4 15.5 83 270 0.3 0.8 1016.5 0.0000 0.0000
01:06 18.3 15.4 83 135 0.3 0.8 1016.5 0.0000 0.0000
01:17 18.2 15.5 84 135 0.3 0.6 1016.2 0.0000 0.0000
01:27 18.2 15.5 84 168 0.3 0.6 1016.2 0.0000 0.0000
01:37 18.2 15.5 84 156 0.3 0.8 1016.2 0.0000 0.0000
01:47 18.2 15.5 84 198 0.3 0.8 1016.1 0.0000 0.0000
01:57 18.2 15.5 84 187 0.3 0.6 1016.2 0.0000 0.0000
02:07 18.2 15.5 84 188 0.3 0.8 1016.1 0.0000 0.0000
02:17 18.1 15.4 84 180 0.3 0.8 1016.2 0.0000 0.0000
02:28 18.1 15.4 84 191 0.3 0.8 1016.2 0.0000 0.0000
02:38 18.1 15.4 84 150 0.3 0.8 1016.1 0.0000 0.0000
02:48 18 15.3 84 180 0.3 0.8 1016.2 0.0000 0.0000
02:57 17.8 15.2 85 164 0.3 0.6 1016.1 0.0000 0.0000
03:08 17.8 15.2 85 161 0.3 0.8 1016 0.0000 0.0000
03:18 17.7 15.1 85 0 0.6 1016 0.0000 0.0000
03:28 17.6 15.2 86 135 0.3 0.8 1016 0.0000 0.0000
03:38 17.5 15.1 86 146 0.3 0.6 1016 0.0000 0.0000
03:49 17.5 15.1 86 123 0.3 0.8 1016 0.0000 0.0000
03:58 17.5 15.3 87 128 0.3 0.6 1016.1 0.0000 0.0000
04:08 17.4 15.2 87 149 0.3 0.6 1015.9 0.0000 0.0000
04:19 17.4 15.2 87 135 0.3 0.6 1016 0.0000 0.0000
04:29 17.4 15.2 87 135 0.3 0.8 1016 0.0000 0.0000
04:39 17.4 15.4 88 135 0.3 0.6 1015.9 0.0000 0.0000
04:49 17.5 15.5 88 140 0.3 0.6 1015.9 0.0000 0.0000
04:59 17.5 15.5 88 158 0.3 0.8 1016.1 0.0000 0.0000
05:09 17.4 15.4 88 149 0.3 0.8 1016 0.0000 0.0000
05:19 17.4 15.4 88 158 0.3 0.8 1016 0.0000 0.0000
05:30 17.5 15.5 88 141 0.3 0.8 1016 0.0000 0.0000
05:40 17.5 15.5 88 149 0.3 0.8 1016.1 0.0000 0.0000
05:50 17.4 15.4 88 90 0.3 0.6 1016.1 0.0000 0.0000
05:59 17.4 15.4 88 90 0.3 0.8 1016.2 0.0000 0.0000
06:10 17.3 15.3 88 143 0.3 0.6 1016.1 0.0000 0.0000
06:20 17.2 15.2 88 153 0.3 0.6 1016 0.0000 0.0000
06:30 17.3 15.5 89 135 0.3 0.8 1016.1 0.0000 0.0000
06:40 17.4 15.6 89 129 0.3 0.8 1016.1 0.0000 0.0000
06:51 17.5 15.7 89 161 0.3 0.6 1016.1 0.0000 0.0000
07:00 17.6 15.8 89 90 0.3 0.8 1016.1 0.0000 0.0000
07:10 17.8 16 89 45 0.3 0.8 1016.1 0.0000 0.0000
07:21 17.9 16.1 89 51 0.3 0.8 1016.1 0.0000 0.0000
07:31 18.1 16.3 89 36 0.6 0.8 1016.1 0.0000 0.0000
07:41 18.2 16.4 89 45 0.6 0.8 1016.1 0.0000 0.0000
07:51 18.6 16.8 89 53 0.6 0.8 1016 0.0000 0.0000
08:01 19.1 17.2 89 66 0.6 0.8 1016.1 0.0000 0.0000
08:11 19.6 17.6 88 54 0.3 0.8 1016.1 0.0000 0.0000
08:21 20.3 18.1 87 90 0.3 1.1 1016 0.0000 0.0000
08:32 21 18.4 85 90 0.6 1.4 1016 0.0000 0.0000
08:42 21.8 18.2 80 131 0.6 1.7 1016.1 0.0000 0.0000
08:52 22.6 18.8 79 135 0.3 1.4 1016.1 0.0000 0.0000
09:01 23.2 18.5 75 183 0.6 2.5 1016.1 0.0000 0.0000
09:12 23.8 18.5 72 227 0.6 1.9 1016 0.0000 0.0000
09:22 24.4 18.8 71 90 0.3 1.1 1016.1 0.0000 0.0000
09:32 24.9 18.8 69 170 0.3 1.4 1016.1 0.0000 0.0000
09:42 25.3 18.7 67 143 0.3 1.1 1016.1 0.0000 0.0000
09:53 25.8 19.2 67 90 0.3 1.1 1016.1 0.0000 0.0000
10:02 26.1 19 65 150 0.6 1.7 1016.2 0.0000 0.0000
10:12 26.4 18.8 63 225 0.6 1.4 1016.3 0.0000 0.0000
10:23 26.8 19.2 63 149 0.6 1.9 1016.1 0.0000 0.0000
10:33 27 18.8 61 159 0.6 1.7 1016.1 0.0000 0.0000
10:43 27.3 18.9 60 90 0.6 1.7 1016.1 0.0000 0.0000
10:53 27.6 18.6 58 135 0.6 1.9 1016.1 0.0000 0.0000
11:03 27.8 18.2 56 225 0.6 1.9 1016.2 0.0000 0.0000
11:13 28.1 18.5 56 108 0.6 1.4 1016 0.0000 0.0000
11:23 28.3 18.7 56 244 0.6 2.8 1016 0.0000 0.0000
11:34 28.6 18.4 54 258 0.8 3.3 1015.9 0.0000 0.0000
11:44 28.8 18.3 53 270 0.3 1.4 1016 0.0000 0.0000
11:53 29 18.5 53 233 0.6 1.7 1015.8 0.0000 0.0000
12:03 29.1 17.9 51 239 0.6 2.5 1015.8 0.0000 0.0000
12:14 29.3 17.8 50 180 0.6 1.7 1015.8 0.0000 0.0000
12:24 29.5 17.7 49 119 0.6 1.4 1015.7 0.0000 0.0000
12:34 29.7 17.9 49 225 0.3 1.4 1016 0.0000 0.0000
12:44 29.8 17.6 48 225 0.6 1.7 1015.8 0.0000 0.0000
12:54 30 17.8 48 225 0.3 1.1 1015.8 0.0000 0.0000
13:04 30.2 17.3 46 244 0.6 2.2 1015.6 0.0000 0.0000
13:14 30.3 17 45 140 0.6 1.9 1015.8 0.0000 0.0000
13:25 30.4 17.5 46 241 0.8 3.1 1015.7 0.0000 0.0000
13:35 30.6 17.7 46 225 0.6 1.7 1015.6 0.0000 0.0000
13:44 30.6 17.3 45 242 0.8 2.2 1015.5 0.0000 0.0000
13:55 30.7 17.4 45 206 0.6 1.9 1015.6 0.0000 0.0000
14:05 30.8 17.5 45 237 0.6 2.5 1015.6 0.0000 0.0000
14:15 30.8 17.8 46 107 0.6 2.2 1015.5 0.0000 0.0000
14:25 30.9 17.6 45 255 0.6 2.5 1015.4 0.0000 0.0000
14:36 31 17.7 45 135 0.6 1.9 1015.4 0.0000 0.0000
14:45 31.1 17.8 45 225 0.6 1.4 1015.5 0.0000 0.0000
14:55 31.2 17.9 45 198 0.6 2.5 1015.4 0.0000 0.0000
15:05 31.2 19.2 49 270 0.6 1.9 1015.5 0.0000 0.0000
15:16 31.2 20.2 52 4 0.8 2.2 1015.3 0.0000 0.0000
15:26 31.3 20.3 52 26 0.8 3.1 1015.3 0.0000 0.0000
15:36 31.3 20.6 53 17 0.8 1.9 1015.3 0.0000 0.0000
15:46 31.2 20.8 54 24 1.1 3.1 1015.2 0.0000 0.0000
15:56 31.1 20.7 54 22 0.8 2.8 1015.4 0.0000 0.0000
16:06 31 20.6 54 26 1.4 3.3 1015.3 0.0000 0.0000
16:16 30.9 20.8 55 34 0.8 2.5 1015.4 0.0000 0.0000
16:27 30.8 20.7 55 21 1.1 2.5 1015.3 0.0000 0.0000
16:37 30.8 21 56 22 1.1 2.2 1015.4 0.0000 0.0000
16:46 30.7 20.9 56 19 0.8 1.9 1015.3 0.0000 0.0000
16:57 30.7 20.6 55 344 0.6 1.9 1015.2 0.0000 0.0000

DAY STATISTIC

2019-08-18
TEMPERATURE
AVERAGE
23.4
HIGH
31.3
15:26
LOW
17.2
06:20
PRESSURE
AVERAGE
1015.9
HIGH
1016.7
00:16
LOW
1015.2
15:46
DEWPOINT
AVERAGE
17.2
HIGH
21.0
16:37
LOW
15.1
03:18
HUMIDITY
AVERAGE
71
HIGH
89
06:30
LOW
45
13:14
WIND SPEED
AVERAGE
0.5
HIGH
1.4
16:06
WIND GUST
AVERAGE
1.4
HIGH
3.3
11:34
WIND DIRECTION
PREVAILING
SE
32%
N
7.0
NE
11.0
E
10.0
SE
32.0
S
18.0
SW
16.0
W
5.0
NW
0.0
PRECIPITATION
RAIN HOUR
0.0
RAIN DAY
0.0
TEMPERATURE (°C)
LOW
17.2
HIGH
31.3
AVERAGE
23.4
PRESSURE (hpa)
LOW
1015.2
HIGH
1016.7
AVERAGE
1015.9
DEVICE